sensor_id;sensor_type;location;lat;lon;timestamp;pressure;altitude;pressure_sealevel;temperature;humidity
79481;BME280;68944;48.262;14.208;2024-03-22T00:00:06;99072.19;;;8.13;100.00
79481;BME280;68944;48.262;14.208;2024-03-22T00:02:38;99077.47;;;8.13;100.00
79481;BME280;68944;48.262;14.208;2024-03-22T00:05:04;99072.47;;;8.18;100.00
79481;BME280;68944;48.262;14.208;2024-03-22T00:07:30;99070.00;;;8.16;100.00
79481;BME280;68944;48.262;14.208;2024-03-22T00:09:56;99075.09;;;8.18;100.00
79481;BME280;68944;48.262;14.208;2024-03-22T00:12:22;99065.25;;;8.12;100.00
79481;BME280;68944;48.262;14.208;2024-03-22T00:14:47;99073.38;;;8.10;100.00
79481;BME280;68944;48.262;14.208;2024-03-22T00:17:14;99067.28;;;8.10;100.00
79481;BME280;68944;48.262;14.208;2024-03-22T00:19:39;99064.00;;;8.07;100.00
79481;BME280;68944;48.262;14.208;2024-03-22T00:22:05;99065.09;;;7.98;100.00
79481;BME280;68944;48.262;14.208;2024-03-22T00:24:30;99063.03;;;7.93;100.00
79481;BME280;68944;48.262;14.208;2024-03-22T00:26:56;99069.75;;;7.96;100.00
79481;BME280;68944;48.262;14.208;2024-03-22T00:29:22;99061.41;;;7.92;100.00
79481;BME280;68944;48.262;14.208;2024-03-22T00:31:48;99057.66;;;7.87;100.00
79481;BME280;68944;48.262;14.208;2024-03-22T00:34:13;99057.50;;;7.88;100.00
79481;BME280;68944;48.262;14.208;2024-03-22T00:36:39;99070.75;;;7.80;100.00
79481;BME280;68944;48.262;14.208;2024-03-22T00:39:04;99055.97;;;7.79;100.00
79481;BME280;68944;48.262;14.208;2024-03-22T00:41:30;99055.13;;;7.78;100.00
79481;BME280;68944;48.262;14.208;2024-03-22T00:43:56;99062.31;;;7.69;100.00
79481;BME280;68944;48.262;14.208;2024-03-22T00:46:21;99062.88;;;7.65;100.00
79481;BME280;68944;48.262;14.208;2024-03-22T00:48:50;99052.94;;;7.67;100.00
79481;BME280;68944;48.262;14.208;2024-03-22T00:51:16;99052.94;;;7.67;100.00
79481;BME280;68944;48.262;14.208;2024-03-22T00:53:42;99057.22;;;7.68;100.00
79481;BME280;68944;48.262;14.208;2024-03-22T00:56:07;99060.94;;;7.58;100.00
79481;BME280;68944;48.262;14.208;2024-03-22T00:58:33;99054.03;;;7.57;100.00
79481;BME280;68944;48.262;14.208;2024-03-22T01:00:58;99050.50;;;7.50;100.00
79481;BME280;68944;48.262;14.208;2024-03-22T01:03:24;99059.31;;;7.57;100.00
79481;BME280;68944;48.262;14.208;2024-03-22T01:05:50;99049.50;;;7.51;100.00
79481;BME280;68944;48.262;14.208;2024-03-22T01:08:15;99047.22;;;7.48;100.00
79481;BME280;68944;48.262;14.208;2024-03-22T01:10:41;99039.84;;;7.43;100.00
79481;BME280;68944;48.262;14.208;2024-03-22T01:13:08;99032.94;;;7.42;100.00
79481;BME280;68944;48.262;14.208;2024-03-22T01:15:33;99039.41;;;7.39;100.00
79481;BME280;68944;48.262;14.208;2024-03-22T01:17:59;99037.56;;;7.40;100.00
79481;BME280;68944;48.262;14.208;2024-03-22T01:20:24;99033.84;;;7.34;100.00
79481;BME280;68944;48.262;14.208;2024-03-22T01:22:50;99029.56;;;7.33;100.00
79481;BME280;68944;48.262;14.208;2024-03-22T01:25:16;99031.28;;;7.26;100.00
79481;BME280;68944;48.262;14.208;2024-03-22T01:27:41;99027.56;;;7.20;100.00
79481;BME280;68944;48.262;14.208;2024-03-22T01:30:07;99026.00;;;7.26;100.00
79481;BME280;68944;48.262;14.208;2024-03-22T01:32:35;99024.94;;;7.20;100.00
79481;BME280;68944;48.262;14.208;2024-03-22T01:35:00;99027.47;;;7.13;100.00
79481;BME280;68944;48.262;14.208;2024-03-22T01:37:26;99025.28;;;7.17;100.00
79481;BME280;68944;48.262;14.208;2024-03-22T01:39:51;99027.81;;;7.10;100.00
79481;BME280;68944;48.262;14.208;2024-03-22T01:42:17;99017.06;;;6.97;100.00
79481;BME280;68944;48.262;14.208;2024-03-22T01:44:42;99018.44;;;6.92;100.00
79481;BME280;68944;48.262;14.208;2024-03-22T01:47:08;99017.56;;;6.77;100.00
79481;BME280;68944;48.262;14.208;2024-03-22T01:49:34;99011.63;;;6.75;100.00
79481;BME280;68944;48.262;14.208;2024-03-22T01:52:00;99010.00;;;6.74;100.00
79481;BME280;68944;48.262;14.208;2024-03-22T01:54:26;99012.47;;;6.75;100.00
79481;BME280;68944;48.262;14.208;2024-03-22T01:56:52;99002.34;;;6.64;100.00
79481;BME280;68944;48.262;14.208;2024-03-22T01:59:17;99007.28;;;6.67;100.00
79481;BME280;68944;48.262;14.208;2024-03-22T02:01:44;99015.00;;;6.68;100.00
79481;BME280;68944;48.262;14.208;2024-03-22T02:04:10;99004.63;;;6.67;100.00
79481;BME280;68944;48.262;14.208;2024-03-22T02:06:35;99007.91;;;6.69;100.00
79481;BME280;68944;48.262;14.208;2024-03-22T02:09:01;99004.63;;;6.67;100.00
79481;BME280;68944;48.262;14.208;2024-03-22T02:11:30;98995.28;;;6.64;100.00
79481;BME280;68944;48.262;14.208;2024-03-22T02:13:55;99006.09;;;6.69;100.00
79481;BME280;68944;48.262;14.208;2024-03-22T02:16:21;98999.81;;;6.70;100.00
79481;BME280;68944;48.262;14.208;2024-03-22T02:18:46;99006.16;;;6.61;100.00
79481;BME280;68944;48.262;14.208;2024-03-22T02:21:12;98997.16;;;6.55;100.00
79481;BME280;68944;48.262;14.208;2024-03-22T02:23:39;98998.03;;;6.47;100.00
79481;BME280;68944;48.262;14.208;2024-03-22T02:26:05;98993.81;;;6.38;100.00
79481;BME280;68944;48.262;14.208;2024-03-22T02:28:33;98994.19;;;6.35;100.00
79481;BME280;68944;48.262;14.208;2024-03-22T02:31:00;98988.84;;;6.43;100.00
79481;BME280;68944;48.262;14.208;2024-03-22T02:33:25;98988.84;;;6.43;100.00
79481;BME280;68944;48.262;14.208;2024-03-22T02:35:51;98992.53;;;6.34;100.00
79481;BME280;68944;48.262;14.208;2024-03-22T02:38:17;98984.19;;;6.30;100.00
79481;BME280;68944;48.262;14.208;2024-03-22T02:40:44;98983.28;;;6.38;100.00
79481;BME280;68944;48.262;14.208;2024-03-22T02:43:10;98976.41;;;6.37;100.00
79481;BME280;68944;48.262;14.208;2024-03-22T02:45:37;98978.38;;;6.35;100.00
79481;BME280;68944;48.262;14.208;2024-03-22T02:48:03;98965.63;;;6.23;100.00
79481;BME280;68944;48.262;14.208;2024-03-22T02:50:35;98968.53;;;6.29;100.00
79481;BME280;68944;48.262;14.208;2024-03-22T02:53:02;98957.34;;;6.35;100.00
79481;BME280;68944;48.262;14.208;2024-03-22T02:55:28;98958.00;;;6.29;100.00
79481;BME280;68944;48.262;14.208;2024-03-22T02:57:53;98956.03;;;6.31;100.00
79481;BME280;68944;48.262;14.208;2024-03-22T03:00:19;98965.88;;;6.37;100.00
79481;BME280;68944;48.262;14.208;2024-03-22T03:02:48;98971.88;;;6.22;100.00
79481;BME280;68944;48.262;14.208;2024-03-22T03:05:13;98971.94;;;6.14;100.00
79481;BME280;68944;48.262;14.208;2024-03-22T03:07:39;98971.00;;;6.07;100.00
79481;BME280;68944;48.262;14.208;2024-03-22T03:10:06;98970.41;;;5.88;100.00
79481;BME280;68944;48.262;14.208;2024-03-22T03:12:32;98974.00;;;5.63;100.00
79481;BME280;68944;48.262;14.208;2024-03-22T03:14:58;98971.06;;;5.90;100.00
79481;BME280;68944;48.262;14.208;2024-03-22T03:17:23;98969.56;;;5.96;100.00
79481;BME280;68944;48.262;14.208;2024-03-22T03:19:49;98966.22;;;6.02;100.00
79481;BME280;68944;48.262;14.208;2024-03-22T03:22:15;98956.50;;;6.11;100.00
79481;BME280;68944;48.262;14.208;2024-03-22T03:24:41;98956.28;;;6.21;100.00
79481;BME280;68944;48.262;14.208;2024-03-22T03:27:07;98951.84;;;6.21;100.00
79481;BME280;68944;48.262;14.208;2024-03-22T03:29:33;98947.38;;;6.22;100.00
79481;BME280;68944;48.262;14.208;2024-03-22T03:31:58;98949.06;;;6.14;100.00
79481;BME280;68944;48.262;14.208;2024-03-22T03:34:26;98936.41;;;6.18;100.00
79481;BME280;68944;48.262;14.208;2024-03-22T03:36:52;98935.13;;;6.14;100.00
79481;BME280;68944;48.262;14.208;2024-03-22T03:39:17;98926.09;;;6.08;100.00
79481;BME280;68944;48.262;14.208;2024-03-22T03:41:43;98926.81;;;5.94;100.00
79481;BME280;68944;48.262;14.208;2024-03-22T03:44:08;98937.00;;;5.97;100.00
79481;BME280;68944;48.262;14.208;2024-03-22T03:46:34;98935.19;;;5.97;100.00
79481;BME280;68944;48.262;14.208;2024-03-22T03:49:00;98936.94;;;6.05;100.00
79481;BME280;68944;48.262;14.208;2024-03-22T03:51:25;98933.69;;;5.71;100.00
79481;BME280;68944;48.262;14.208;2024-03-22T03:53:51;98935.78;;;5.76;100.00
79481;BME280;68944;48.262;14.208;2024-03-22T03:56:16;98941.44;;;5.64;100.00
79481;BME280;68944;48.262;14.208;2024-03-22T03:58:42;98934.69;;;5.70;100.00
79481;BME280;68944;48.262;14.208;2024-03-22T04:01:08;98930.75;;;5.66;100.00
79481;BME280;68944;48.262;14.208;2024-03-22T04:03:34;98925.03;;;5.62;100.00
79481;BME280;68944;48.262;14.208;2024-03-22T04:06:00;98935.81;;;5.35;100.00
79481;BME280;68944;48.262;14.208;2024-03-22T04:08:26;98923.53;;;5.28;100.00
79481;BME280;68944;48.262;14.208;2024-03-22T04:10:53;98929.44;;;5.30;100.00
79481;BME280;68944;48.262;14.208;2024-03-22T04:13:18;98931.22;;;5.29;100.00
79481;BME280;68944;48.262;14.208;2024-03-22T04:15:44;98938.97;;;5.31;100.00
79481;BME280;68944;48.262;14.208;2024-03-22T04:18:09;98922.50;;;5.37;100.00
79481;BME280;68944;48.262;14.208;2024-03-22T04:20:35;98919.25;;;5.27;100.00
79481;BME280;68944;48.262;14.208;2024-03-22T04:23:00;98924.34;;;5.28;100.00
79481;BME280;68944;48.262;14.208;2024-03-22T04:25:26;98912.19;;;5.27;100.00
79481;BME280;68944;48.262;14.208;2024-03-22T04:27:51;98920.06;;;5.35;100.00
79481;BME280;68944;48.262;14.208;2024-03-22T04:30:17;98911.13;;;5.45;100.00
79481;BME280;68944;48.262;14.208;2024-03-22T04:32:46;98911.81;;;5.39;100.00
79481;BME280;68944;48.262;14.208;2024-03-22T04:35:11;98907.22;;;5.41;100.00
79481;BME280;68944;48.262;14.208;2024-03-22T04:37:37;98902.50;;;5.28;100.00
79481;BME280;68944;48.262;14.208;2024-03-22T04:40:03;98911.53;;;5.25;100.00
79481;BME280;68944;48.262;14.208;2024-03-22T04:42:29;98915.84;;;5.18;100.00
79481;BME280;68944;48.262;14.208;2024-03-22T04:44:54;98916.16;;;5.23;100.00
79481;BME280;68944;48.262;14.208;2024-03-22T04:47:20;98922.88;;;5.26;100.00
79481;BME280;68944;48.262;14.208;2024-03-22T04:49:45;98920.91;;;5.28;100.00
79481;BME280;68944;48.262;14.208;2024-03-22T04:52:11;98916.75;;;5.33;100.00
79481;BME280;68944;48.262;14.208;2024-03-22T04:54:37;98911.16;;;5.37;100.00
79481;BME280;68944;48.262;14.208;2024-03-22T04:57:02;98913.59;;;5.46;100.00
79481;BME280;68944;48.262;14.208;2024-03-22T04:59:28;98907.84;;;5.51;100.00
79481;BME280;68944;48.262;14.208;2024-03-22T05:01:53;98901.94;;;5.49;100.00
79481;BME280;68944;48.262;14.208;2024-03-22T05:04:19;98903.25;;;5.45;100.00
79481;BME280;68944;48.262;14.208;2024-03-22T05:06:45;98906.31;;;5.57;100.00
79481;BME280;68944;48.262;14.208;2024-03-22T05:09:10;98897.97;;;5.53;100.00
79481;BME280;68944;48.262;14.208;2024-03-22T05:11:36;98889.75;;;5.48;100.00
79481;BME280;68944;48.262;14.208;2024-03-22T05:14:02;98889.13;;;5.46;100.00
79481;BME280;68944;48.262;14.208;2024-03-22T05:16:28;98884.50;;;5.48;100.00
79481;BME280;68944;48.262;14.208;2024-03-22T05:18:54;98883.53;;;5.49;100.00
79481;BME280;68944;48.262;14.208;2024-03-22T05:21:20;98884.50;;;5.48;100.00
79481;BME280;68944;48.262;14.208;2024-03-22T05:23:45;98884.16;;;5.51;100.00
79481;BME280;68944;48.262;14.208;2024-03-22T05:26:11;98886.03;;;5.42;100.00
79481;BME280;68944;48.262;14.208;2024-03-22T05:28:36;98893.94;;;5.34;100.00
79481;BME280;68944;48.262;14.208;2024-03-22T05:31:02;98900.47;;;5.46;100.00
79481;BME280;68944;48.262;14.208;2024-03-22T05:33:28;98889.88;;;5.63;100.00
79481;BME280;68944;48.262;14.208;2024-03-22T05:35:54;98896.94;;;5.63;100.00
79481;BME280;68944;48.262;14.208;2024-03-22T05:38:19;98899.16;;;5.74;100.00
79481;BME280;68944;48.262;14.208;2024-03-22T05:40:45;98902.38;;;5.85;100.00
79481;BME280;68944;48.262;14.208;2024-03-22T05:43:13;98898.13;;;5.84;100.00
79481;BME280;68944;48.262;14.208;2024-03-22T05:45:39;98891.91;;;5.76;100.00
79481;BME280;68944;48.262;14.208;2024-03-22T05:48:05;98897.34;;;5.75;100.00
79481;BME280;68944;48.262;14.208;2024-03-22T05:50:31;98899.53;;;5.95;100.00
79481;BME280;68944;48.262;14.208;2024-03-22T05:52:56;98902.78;;;5.97;100.00
79481;BME280;68944;48.262;14.208;2024-03-22T05:55:26;98895.94;;;5.87;100.00
79481;BME280;68944;48.262;14.208;2024-03-22T05:57:56;98903.66;;;5.89;100.00
79481;BME280;68944;48.262;14.208;2024-03-22T06:00:21;98901.97;;;5.96;100.00
79481;BME280;68944;48.262;14.208;2024-03-22T06:02:47;98899.78;;;6.08;100.00
79481;BME280;68944;48.262;14.208;2024-03-22T06:05:13;98901.56;;;6.16;100.00
79481;BME280;68944;48.262;14.208;2024-03-22T06:07:38;98899.22;;;6.21;100.00
79481;BME280;68944;48.262;14.208;2024-03-22T06:10:08;98903.75;;;6.28;100.00
79481;BME280;68944;48.262;14.208;2024-03-22T06:12:35;98901.59;;;6.31;100.00
79481;BME280;68944;48.262;14.208;2024-03-22T06:15:01;98900.84;;;6.22;100.00
79481;BME280;68944;48.262;14.208;2024-03-22T06:17:26;98909.03;;;6.28;100.00
79481;BME280;68944;48.262;14.208;2024-03-22T06:19:52;98903.53;;;6.37;100.00
79481;BME280;68944;48.262;14.208;2024-03-22T06:22:17;98910.09;;;6.18;100.00
79481;BME280;68944;48.262;14.208;2024-03-22T06:24:44;98915.00;;;6.21;100.00
79481;BME280;68944;48.262;14.208;2024-03-22T06:27:10;98916.97;;;6.19;100.00
79481;BME280;68944;48.262;14.208;2024-03-22T06:29:35;98916.97;;;6.19;100.00
79481;BME280;68944;48.262;14.208;2024-03-22T06:32:01;98915.69;;;6.15;100.00
79481;BME280;68944;48.262;14.208;2024-03-22T06:34:27;98911.97;;;6.33;100.00
79481;BME280;68944;48.262;14.208;2024-03-22T06:36:52;98900.13;;;6.29;100.00
79481;BME280;68944;48.262;14.208;2024-03-22T06:39:18;98899.66;;;6.48;100.00
79481;BME280;68944;48.262;14.208;2024-03-22T06:41:45;98887.47;;;6.47;100.00
79481;BME280;68944;48.262;14.208;2024-03-22T06:44:10;98892.28;;;6.44;100.00
79481;BME280;68944;48.262;14.208;2024-03-22T06:46:37;98889.81;;;6.42;100.00
79481;BME280;68944;48.262;14.208;2024-03-22T06:49:03;98900.91;;;6.53;100.00
79481;BME280;68944;48.262;14.208;2024-03-22T06:51:29;98895.69;;;6.83;100.00
79481;BME280;68944;48.262;14.208;2024-03-22T06:53:55;98889.78;;;6.96;100.00
79481;BME280;68944;48.262;14.208;2024-03-22T06:56:21;98883.91;;;7.09;100.00
79481;BME280;68944;48.262;14.208;2024-03-22T06:58:46;98880.16;;;7.03;100.00
79481;BME280;68944;48.262;14.208;2024-03-22T07:01:12;98879.25;;;6.96;100.00
79481;BME280;68944;48.262;14.208;2024-03-22T07:03:38;98880.19;;;6.88;100.00
79481;BME280;68944;48.262;14.208;2024-03-22T07:06:03;98880.25;;;6.80;100.00
79481;BME280;68944;48.262;14.208;2024-03-22T07:08:31;98886.78;;;6.84;100.00
79481;BME280;68944;48.262;14.208;2024-03-22T07:10:57;98891.75;;;6.64;100.00
79481;BME280;68944;48.262;14.208;2024-03-22T07:13:23;98894.47;;;6.55;100.00
79481;BME280;68944;48.262;14.208;2024-03-22T07:15:49;98890.94;;;6.63;100.00
79481;BME280;68944;48.262;14.208;2024-03-22T07:18:15;98902.03;;;6.74;100.00
79481;BME280;68944;48.262;14.208;2024-03-22T07:20:41;98896.41;;;6.92;100.00
79481;BME280;68944;48.262;14.208;2024-03-22T07:23:07;98899.63;;;7.02;100.00
79481;BME280;68944;48.262;14.208;2024-03-22T07:25:33;98897.44;;;7.06;100.00
79481;BME280;68944;48.262;14.208;2024-03-22T07:27:58;98891.16;;;7.22;100.00
79481;BME280;68944;48.262;14.208;2024-03-22T07:30:24;98885.31;;;7.12;100.00
79481;BME280;68944;48.262;14.208;2024-03-22T07:32:50;98888.47;;;7.37;100.00
79481;BME280;68944;48.262;14.208;2024-03-22T07:35:16;98882.41;;;7.37;100.00
79481;BME280;68944;48.262;14.208;2024-03-22T07:37:42;98877.50;;;7.34;100.00
79481;BME280;68944;48.262;14.208;2024-03-22T07:40:07;98877.56;;;7.40;100.00
79481;BME280;68944;48.262;14.208;2024-03-22T07:42:33;98876.34;;;7.58;100.00
79481;BME280;68944;48.262;14.208;2024-03-22T07:44:59;98882.38;;;7.52;100.00
79481;BME280;68944;48.262;14.208;2024-03-22T07:47:26;98872.59;;;7.68;100.00
79481;BME280;68944;48.262;14.208;2024-03-22T07:49:51;98871.03;;;7.73;100.00
79481;BME280;68944;48.262;14.208;2024-03-22T07:52:17;98869.41;;;7.94;100.00
79481;BME280;68944;48.262;14.208;2024-03-22T07:54:43;98869.97;;;8.12;100.00
79481;BME280;68944;48.262;14.208;2024-03-22T07:57:08;98861.47;;;8.16;100.00
79481;BME280;68944;48.262;14.208;2024-03-22T07:59:36;98859.44;;;8.40;100.00
79481;BME280;68944;48.262;14.208;2024-03-22T08:02:01;98863.31;;;8.67;100.00
79481;BME280;68944;48.262;14.208;2024-03-22T08:04:28;98847.28;;;8.75;100.00
79481;BME280;68944;48.262;14.208;2024-03-22T08:06:54;98849.13;;;8.74;100.00
79481;BME280;68944;48.262;14.208;2024-03-22T08:09:20;98853.84;;;8.86;100.00
79481;BME280;68944;48.262;14.208;2024-03-22T08:11:46;98847.06;;;8.70;100.00
79481;BME280;68944;48.262;14.208;2024-03-22T08:14:11;98842.28;;;8.87;100.00
79481;BME280;68944;48.262;14.208;2024-03-22T08:16:37;98845.63;;;9.09;100.00
79481;BME280;68944;48.262;14.208;2024-03-22T08:19:02;98836.16;;;9.29;100.00
79481;BME280;68944;48.262;14.208;2024-03-22T08:21:28;98822.00;;;9.57;100.00
79481;BME280;68944;48.262;14.208;2024-03-22T08:23:54;98827.31;;;9.64;100.00
79481;BME280;68944;48.262;14.208;2024-03-22T08:26:20;98825.22;;;9.46;100.00
79481;BME280;68944;48.262;14.208;2024-03-22T08:28:46;98833.78;;;9.54;100.00
79481;BME280;68944;48.262;14.208;2024-03-22T08:31:13;98830.97;;;9.76;100.00
79481;BME280;68944;48.262;14.208;2024-03-22T08:33:39;98819.16;;;9.65;100.00
79481;BME280;68944;48.262;14.208;2024-03-22T08:36:04;98814.84;;;9.58;100.00
79481;BME280;68944;48.262;14.208;2024-03-22T08:38:30;98814.91;;;9.64;100.00
79481;BME280;68944;48.262;14.208;2024-03-22T08:40:55;98809.63;;;9.78;100.00
79481;BME280;68944;48.262;14.208;2024-03-22T08:43:21;98812.28;;;10.05;100.00
79481;BME280;68944;48.262;14.208;2024-03-22T08:45:48;98818.56;;;10.31;100.00
79481;BME280;68944;48.262;14.208;2024-03-22T08:48:14;98811.44;;;10.32;100.00
79481;BME280;68944;48.262;14.208;2024-03-22T08:50:42;98808.78;;;10.25;100.00
79481;BME280;68944;48.262;14.208;2024-03-22T08:53:08;98798.81;;;10.54;100.00
79481;BME280;68944;48.262;14.208;2024-03-22T08:55:33;98792.28;;;10.57;100.00
79481;BME280;68944;48.262;14.208;2024-03-22T08:57:59;98789.00;;;10.55;100.00
79481;BME280;68944;48.262;14.208;2024-03-22T09:00:25;98795.47;;;10.79;100.00
79481;BME280;68944;48.262;14.208;2024-03-22T09:02:52;98785.31;;;10.69;100.00
79481;BME280;68944;48.262;14.208;2024-03-22T09:05:17;98790.66;;;10.35;100.00
79481;BME280;68944;48.262;14.208;2024-03-22T09:07:43;98774.78;;;10.35;100.00
79481;BME280;68944;48.262;14.208;2024-03-22T09:10:09;98778.44;;;10.28;100.00
79481;BME280;68944;48.262;14.208;2024-03-22T09:12:35;98771.47;;;10.61;100.00
79481;BME280;68944;48.262;14.208;2024-03-22T09:15:01;98764.91;;;10.70;100.00
79481;BME280;68944;48.262;14.208;2024-03-22T09:17:27;98757.97;;;10.83;100.00
79481;BME280;68944;48.262;14.208;2024-03-22T09:19:53;98766.91;;;10.81;100.00
79481;BME280;68944;48.262;14.208;2024-03-22T09:22:18;98761.66;;;10.68;100.00
79481;BME280;68944;48.262;14.208;2024-03-22T09:24:44;98758.78;;;10.76;100.00
79481;BME280;68944;48.262;14.208;2024-03-22T09:27:09;98741.34;;;11.01;100.00
79481;BME280;68944;48.262;14.208;2024-03-22T09:29:36;98746.72;;;11.26;100.00
79481;BME280;68944;48.262;14.208;2024-03-22T09:32:02;98746.81;;;11.38;100.00
79481;BME280;68944;48.262;14.208;2024-03-22T09:34:28;98738.91;;;11.32;100.00
79481;BME280;68944;48.262;14.208;2024-03-22T09:36:56;98741.47;;;11.45;100.00
79481;BME280;68944;48.262;14.208;2024-03-22T09:39:22;98738.16;;;11.57;100.00
79481;BME280;68944;48.262;14.208;2024-03-22T09:41:47;98734.28;;;11.78;100.00
79481;BME280;68944;48.262;14.208;2024-03-22T09:44:18;98727.88;;;12.12;100.00
79481;BME280;68944;48.262;14.208;2024-03-22T09:46:46;98716.25;;;12.13;100.00
79481;BME280;68944;48.262;14.208;2024-03-22T09:49:12;98719.38;;;12.28;100.00
79481;BME280;68944;48.262;14.208;2024-03-22T09:51:39;98718.03;;;12.19;100.00
79481;BME280;68944;48.262;14.208;2024-03-22T09:54:06;98712.06;;;12.24;100.00
79481;BME280;68944;48.262;14.208;2024-03-22T09:56:32;98715.81;;;12.35;100.00
79481;BME280;68944;48.262;14.208;2024-03-22T09:58:58;98708.66;;;12.16;100.00
79481;BME280;68944;48.262;14.208;2024-03-22T10:01:24;98706.53;;;12.44;100.00
79481;BME280;68944;48.262;14.208;2024-03-22T10:03:51;98709.84;;;12.58;100.00
79481;BME280;68944;48.262;14.208;2024-03-22T10:06:20;98698.91;;;12.48;100.00
79481;BME280;68944;48.262;14.208;2024-03-22T10:08:46;98703.84;;;12.63;100.00
79481;BME280;68944;48.262;14.208;2024-03-22T10:11:12;98697.53;;;12.76;100.00
79481;BME280;68944;48.262;14.208;2024-03-22T10:13:37;98694.38;;;12.67;100.00
79481;BME280;68944;48.262;14.208;2024-03-22T10:16:03;98692.41;;;12.62;100.00
79481;BME280;68944;48.262;14.208;2024-03-22T10:18:32;98680.25;;;12.85;100.00
79481;BME280;68944;48.262;14.208;2024-03-22T10:21:02;98684.44;;;12.93;100.00
79481;BME280;68944;48.262;14.208;2024-03-22T10:23:29;98686.94;;;13.31;100.00
79481;BME280;68944;48.262;14.208;2024-03-22T10:25:58;98682.31;;;13.26;100.00
79481;BME280;68944;48.262;14.208;2024-03-22T10:28:25;98678.81;;;13.69;100.00
79481;BME280;68944;48.262;14.208;2024-03-22T10:30:51;98684.44;;;13.36;100.00
79481;BME280;68944;48.262;14.208;2024-03-22T10:33:20;98684.56;;;13.53;100.00
79481;BME280;68944;48.262;14.208;2024-03-22T10:35:53;98683.69;;;13.60;100.00
79481;BME280;68944;48.262;14.208;2024-03-22T10:38:22;98668.13;;;13.33;100.00
79481;BME280;68944;48.262;14.208;2024-03-22T10:40:48;98674.94;;;13.40;100.00
79481;BME280;68944;48.262;14.208;2024-03-22T10:43:14;98662.84;;;13.57;100.00
79481;BME280;68944;48.262;14.208;2024-03-22T10:45:41;98674.66;;;13.85;100.00
79481;BME280;68944;48.262;14.208;2024-03-22T10:48:10;98669.44;;;14.14;100.00
79481;BME280;68944;48.262;14.208;2024-03-22T10:50:40;98672.88;;;14.15;100.00
79481;BME280;68944;48.262;14.208;2024-03-22T10:53:23;98671.25;;;14.26;100.00
79481;BME280;68944;48.262;14.208;2024-03-22T10:55:51;98677.75;;;14.06;100.00
79481;BME280;68944;48.262;14.208;2024-03-22T10:58:21;98657.50;;;14.05;100.00
79481;BME280;68944;48.262;14.208;2024-03-22T11:00:47;98666.28;;;14.17;100.00
79481;BME280;68944;48.262;14.208;2024-03-22T11:03:13;98673.97;;;14.43;100.00
79481;BME280;68944;48.262;14.208;2024-03-22T11:05:46;98656.91;;;14.03;100.00
79481;BME280;68944;48.262;14.208;2024-03-22T11:08:11;98651.06;;;14.30;100.00
79481;BME280;68944;48.262;14.208;2024-03-22T11:10:37;98656.97;;;14.32;100.00
79481;BME280;68944;48.262;14.208;2024-03-22T11:13:08;98645.63;;;14.66;100.00
79481;BME280;68944;48.262;14.208;2024-03-22T11:15:34;98654.84;;;14.46;100.00
79481;BME280;68944;48.262;14.208;2024-03-22T11:18:00;98648.31;;;14.25;100.00
79481;BME280;68944;48.262;14.208;2024-03-22T11:20:27;98637.88;;;14.23;100.00
79481;BME280;68944;48.262;14.208;2024-03-22T11:22:53;98651.63;;;14.44;100.00
79481;BME280;68944;48.262;14.208;2024-03-22T11:25:19;98637.03;;;14.35;100.00
79481;BME280;68944;48.262;14.208;2024-03-22T11:27:46;98630.81;;;14.58;100.00
79481;BME280;68944;48.262;14.208;2024-03-22T11:30:13;98624.69;;;14.75;100.00
79481;BME280;68944;48.262;14.208;2024-03-22T11:32:41;98622.47;;;14.84;96.14
79481;BME280;68944;48.262;14.208;2024-03-22T11:35:12;98621.41;;;14.67;92.75
79481;BME280;68944;48.262;14.208;2024-03-22T11:37:39;98610.53;;;14.57;98.80
79481;BME280;68944;48.262;14.208;2024-03-22T11:40:08;98598.66;;;14.94;99.55
79481;BME280;68944;48.262;14.208;2024-03-22T11:42:46;98602.69;;;15.31;94.35
79481;BME280;68944;48.262;14.208;2024-03-22T11:45:16;98599.47;;;15.29;95.14
79481;BME280;68944;48.262;14.208;2024-03-22T11:47:44;98595.25;;;15.33;92.36
79481;BME280;68944;48.262;14.208;2024-03-22T11:50:11;98584.50;;;15.28;95.94
79481;BME280;68944;48.262;14.208;2024-03-22T11:52:43;98574.84;;;15.84;92.57
79481;BME280;68944;48.262;14.208;2024-03-22T11:55:13;98576.38;;;15.57;92.05
79481;BME280;68944;48.262;14.208;2024-03-22T11:57:39;98565.97;;;15.78;92.11
79481;BME280;68944;48.262;14.208;2024-03-22T12:00:05;98567.38;;;15.64;95.71
79481;BME280;68944;48.262;14.208;2024-03-22T12:02:41;98560.81;;;16.44;92.23
79481;BME280;68944;48.262;14.208;2024-03-22T12:05:09;98563.81;;;16.20;93.31
79481;BME280;68944;48.262;14.208;2024-03-22T12:07:35;98544.72;;;16.11;94.93
79481;BME280;68944;48.262;14.208;2024-03-22T12:10:02;98544.13;;;16.32;97.46
79481;BME280;68944;48.262;14.208;2024-03-22T12:12:29;98543.00;;;16.83;92.10
79481;BME280;68944;48.262;14.208;2024-03-22T12:14:55;98534.13;;;16.22;96.82
79481;BME280;68944;48.262;14.208;2024-03-22T12:17:21;98536.31;;;16.02;98.59
79481;BME280;68944;48.262;14.208;2024-03-22T12:19:46;98534.09;;;15.94;100.00
79481;BME280;68944;48.262;14.208;2024-03-22T12:22:13;98523.16;;;16.18;99.34
79481;BME280;68944;48.262;14.208;2024-03-22T12:24:38;98533.59;;;15.97;99.05
79481;BME280;68944;48.262;14.208;2024-03-22T12:27:04;98520.09;;;15.87;100.00
79481;BME280;68944;48.262;14.208;2024-03-22T12:29:33;98518.09;;;16.22;100.00
79481;BME280;68944;48.262;14.208;2024-03-22T12:31:59;98505.69;;;16.10;98.82
79481;BME280;68944;48.262;14.208;2024-03-22T12:34:29;98498.28;;;16.18;100.00
79481;BME280;68944;48.262;14.208;2024-03-22T12:36:56;98500.41;;;16.48;98.94
79481;BME280;68944;48.262;14.208;2024-03-22T12:39:22;98498.53;;;15.93;100.00
79481;BME280;68944;48.262;14.208;2024-03-22T12:41:47;98496.56;;;15.84;100.00